Welcome to Northern Hawkes Bay. New Zealand.
PWS Header
      nz Flag



Hit Counter


W3C Valid W3C Valid logo


    Wairoa

Select any of the Stations below to visit their websites.










Historic Data from Weather Underground
Select the location of interest below. Wairoa is the default. Please have patience, this Data is slow to load in.
Northern Hawkes Bay Historical Data
Daily Summary for January 15, 2017 Units:  English    Metric   Both
« Previous Day
Next Day »
Daily Weekly Monthly Yearly Custom
  High: Low: Average:
Temperature: 86 °F 67.6 °F 76.1 °F
Dew Point: 65.8 °F 48 °F 58.5 °F
Humidity: 65% 44% 54%
Wind Speed: 20.6mph 0mph 8.2mph
Wind Gust: 30.4mph - -
Wind- - WNW
Pressure: 29.7 in 29.5 in -
Precipitation: 0 in    
Historical Graphs
 
 
Tabular Data for January 15, 2017
Time Temperature Dew Point Pressure Wind Wind Speed Wind Gust Humidity Rainfall Rate (Hourly) solar
00:01 70.9 °F 54.9 °F 29.7 in NNW 3.1 mph 6.9 mph 57% 0 in 0 W/m2
00:06 70.9 °F 54.9 °F 29.7 in NNW 2.2 mph 6.9 mph 57% 0 in 0 W/m2
00:11 70.5 °F 55 °F 29.7 in North 1.6 mph 6.9 mph 58% 0 in 0 W/m2
00:16 70.5 °F 55 °F 29.7 in North 1.6 mph 3.8 mph 58% 0 in 0 W/m2
00:21 70.5 °F 55 °F 29.7 in NNW 3.1 mph 3.8 mph 58% 0 in 0 W/m2
00:26 70.3 °F 54.9 °F 29.7 in NW 3.1 mph 4.5 mph 58% 0 in 0 W/m2
00:31 70.5 °F 54.7 °F 29.7 in NNW 4.5 mph 6.9 mph 57% 0 in 0 W/m2
00:36 70.5 °F 54.1 °F 29.7 in NNW 4.5 mph 8.3 mph 56% 0 in 0 W/m2
00:41 70.9 °F 54 °F 29.7 in NNW 3.8 mph 8.3 mph 55% 0 in 0 W/m2
00:46 70.5 °F 53.6 °F 29.7 in NNW 6 mph 9.2 mph 55% 0 in 0 W/m2
00:51 70.9 °F 52.3 °F 29.7 in NNW 5.4 mph 9.2 mph 52% 0 in 0 W/m2
00:56 70.9 °F 50.2 °F 29.7 in NNW 4.5 mph 9.2 mph 48% 0 in 0 W/m2
01:01 70.9 °F 49.6 °F 29.7 in NNW 7.6 mph 10.7 mph 47% 0 in 0 W/m2
01:06 71.1 °F 48 °F 29.7 in NNW 13 mph 19 mph 44% 0 in 0 W/m2
01:11 71.4 °F 48.4 °F 29.7 in NNW 9.2 mph 19 mph 44% 0 in 0 W/m2
01:16 71.2 °F 48.2 °F 29.7 in NNW 12.1 mph 20.6 mph 44% 0 in 0 W/m2
01:21 71.2 °F 48.7 °F 29.7 in NNW 8.3 mph 20.6 mph 45% 0 in 0 W/m2
01:26 71.1 °F 49.3 °F 29.7 in NW 13 mph 20.6 mph 46% 0 in 0 W/m2
01:31 70.9 °F 50.2 °F 29.7 in NW 11.4 mph 17.4 mph 48% 0 in 0 W/m2
01:36 70.7 °F 50.2 °F 29.7 in NW 10.7 mph 17.4 mph 48% 0 in 0 W/m2
01:41 70.5 °F 50.5 °F 29.7 in NNW 9.8 mph 15.9 mph 49% 0 in 0 W/m2
01:46 70.3 °F 50.7 °F 29.7 in NNW 6.9 mph 15.9 mph 50% 0 in 0 W/m2
01:51 70.3 °F 50.7 °F 29.7 in NNW 9.2 mph 17.4 mph 50% 0 in 0 W/m2
01:56 70 °F 51.6 °F 29.7 in North 10.7 mph 18.3 mph 52% 0 in 0 W/m2
02:01 69.8 °F 51.4 °F 29.7 in NNW 8.3 mph 18.3 mph 52% 0 in 0 W/m2
02:06 69.4 °F 52.2 °F 29.7 in NNW 5.4 mph 17.4 mph 54% 0 in 0 W/m2
02:11 68.7 °F 53.4 °F 29.7 in NNW 8.3 mph 13.6 mph 58% 0 in 0 W/m2
02:16 68 °F 53.6 °F 29.7 in NNW 6 mph 13.6 mph 60% 0 in 0 W/m2
02:21 67.6 °F 54.1 °F 29.7 in North 3.8 mph 10.7 mph 62% 0 in 0 W/m2
02:26 67.6 °F 53.2 °F 29.7 in North 8.3 mph 13.6 mph 60% 0 in 0 W/m2
02:31 68.2 °F 52 °F 29.7 in NNW 6 mph 13.6 mph 56% 0 in 0 W/m2
02:34 68.4 °F 51.6 °F 29.7 in NNW 9.8 mph 13.6 mph 55% 0 in 0 W/m2
02:39 68.5 °F 51.8 °F 29.7 in NNW 5.4 mph 13.6 mph 55% 0 in 0 W/m2
02:44 68.5 °F 51.3 °F 29.7 in NW 6.9 mph 13.6 mph 54% 0 in 0 W/m2
02:49 68.9 °F 51.1 °F 29.7 in NNW 9.2 mph 13.6 mph 53% 0 in 0 W/m2
02:54 68.9 °F 51.1 °F 29.7 in NNW 5.4 mph 13.6 mph 53% 0 in 0 W/m2
02:59 68.7 °F 50.9 °F 29.7 in North 6.9 mph 13 mph 53% 0 in 0 W/m2
03:04 68.7 °F 50.4 °F 29.7 in North 6 mph 13.6 mph 52% 0 in 0 W/m2
03:09 68.7 °F 50.4 °F 29.7 in North 6.9 mph 13.6 mph 52% 0 in 0 W/m2
03:14 68.5 °F 50.7 °F 29.7 in North 3.8 mph 12.1 mph 53% 0 in 0 W/m2
03:19 68.4 °F 50.5 °F 29.7 in North 6 mph 10.7 mph 53% 0 in 0 W/m2
03:24 68.9 °F 50.2 °F 29.7 in NNW 6 mph 14.5 mph 51% 0 in 0 W/m2
03:29 69.1 °F 50.2 °F 29.7 in NW 5.4 mph 14.5 mph 51% 0 in 0 W/m2
03:34 69.1 °F 49.6 °F 29.7 in NNW 6.9 mph 13.6 mph 50% 0 in 0 W/m2
03:39 69.1 °F 50.2 °F 29.7 in NNW 5.4 mph 13.6 mph 51% 0 in 0 W/m2
03:44 69.1 °F 50.7 °F 29.7 in NNW 6 mph 13.6 mph 52% 0 in 0 W/m2
03:49 68.9 °F 51.1 °F 29.7 in NNW 9.2 mph 12.1 mph 53% 0 in 0 W/m2
03:55 68.9 °F 51.1 °F 29.7 in North 6.9 mph 12.1 mph 53% 0 in 0 W/m2
04:00 68.9 °F 51.1 °F 29.7 in North 6.9 mph 13 mph 53% 0 in 0 W/m2
04:05 69.1 °F 51.3 °F 29.7 in North 6 mph 13 mph 53% 0 in 0 W/m2
04:10 69.1 °F 51.3 °F 29.7 in NNW 6 mph 13 mph 53% 0 in 0 W/m2
04:15 69.1 °F 51.8 °F 29.7 in NNW 6.9 mph 13 mph 54% 0 in 0 W/m2
04:20 69.1 °F 51.8 °F 29.7 in North 7.6 mph 12.1 mph 54% 0 in 0 W/m2
04:26 69.1 °F 51.8 °F 29.7 in North 8.3 mph 14.5 mph 54% 0 in 0 W/m2
04:31 69.4 °F 51.6 °F 29.7 in North 7.6 mph 16.8 mph 53% 0 in 0 W/m2
04:36 69.3 °F 51.4 °F 29.6 in North 9.8 mph 16.8 mph 53% 0 in 0 W/m2
04:41 69.1 °F 51.8 °F 29.7 in North 6.9 mph 16.8 mph 54% 0 in 0 W/m2
04:46 69.1 °F 51.3 °F 29.7 in North 7.6 mph 16.8 mph 53% 0 in 0 W/m2
04:51 69.1 °F 51.8 °F 29.7 in North 8.3 mph 14.5 mph 54% 0 in 0 W/m2
04:56 69.1 °F 51.8 °F 29.7 in North 6 mph 14.5 mph 54% 0 in 0 W/m2
05:01 68.9 °F 51.6 °F 29.7 in North 6.9 mph 13 mph 54% 0 in 0 W/m2
05:06 68.9 °F 51.6 °F 29.7 in North 10.7 mph 13 mph 54% 0 in 0 W/m2
05:11 69.1 °F 51.8 °F 29.7 in NNW 10.7 mph 14.5 mph 54% 0 in 0 W/m2
05:16 69.1 °F 51.8 °F 29.7 in NNW 9.8 mph 15.2 mph 54% 0 in 0 W/m2
05:21 69.1 °F 51.3 °F 29.7 in North 9.8 mph 17.4 mph 53% 0 in 0 W/m2
05:26 69.1 °F 51.3 °F 29.7 in NNW 9.8 mph 17.4 mph 53% 0 in 0 W/m2
05:31 69.3 °F 51.4 °F 29.7 in NNW 13 mph 18.3 mph 53% 0 in 0 W/m2
05:36 69.3 °F 51.4 °F 29.7 in NNW 6.9 mph 18.3 mph 53% 0 in 0 W/m2
05:41 69.3 °F 51.4 °F 29.7 in NNW 5.4 mph 18.3 mph 53% 0 in 0 W/m2
05:46 69.3 °F 51.4 °F 29.7 in NNW 8.3 mph 13.6 mph 53% 0 in 0 W/m2
05:51 69.3 °F 51.4 °F 29.7 in NNW 8.3 mph 15.9 mph 53% 0 in 0 W/m2
05:56 69.3 °F 51.4 °F 29.7 in NNW 9.8 mph 15.9 mph 53% 0 in 0 W/m2
06:01 69.3 °F 52 °F 29.7 in NW 6.9 mph 14.5 mph 54% 0 in 0 W/m2
06:06 69.3 °F 52 °F 29.7 in NNW 7.6 mph 14.5 mph 54% 0 in 0 W/m2
06:11 69.1 °F 51.8 °F 29.7 in North 8.3 mph 15.2 mph 54% 0 in 1 W/m2
06:16 69.1 °F 51.8 °F 29.7 in North 8.3 mph 15.2 mph 54% 0 in 2 W/m2
06:21 69.1 °F 51.8 °F 29.7 in NNW 6 mph 13.6 mph 54% 0 in 3 W/m2
06:26 69.1 °F 51.8 °F 29.7 in NNW 8.3 mph 13.6 mph 54% 0 in 5 W/m2
06:31 69.1 °F 51.8 °F 29.7 in NNW 6.9 mph 13 mph 54% 0 in 7 W/m2
06:36 69.1 °F 51.8 °F 29.7 in NNW 6 mph 14.5 mph 54% 0 in 10 W/m2
06:41 69.1 °F 51.8 °F 29.7 in NNW 7.6 mph 14.5 mph 54% 0 in 14 W/m2
06:46 69.3 °F 52 °F 29.7 in NNW 7.6 mph 14.5 mph 54% 0 in 21 W/m2
06:51 69.3 °F 52 °F 29.7 in NNW 6.9 mph 13 mph 54% 0 in 25 W/m2
06:56 69.3 °F 52 °F 29.7 in NNW 5.4 mph 13.6 mph 54% 0 in 23 W/m2
07:01 69.3 °F 52 °F 29.7 in NNW 6 mph 13.6 mph 54% 0 in 23 W/m2
07:06 69.3 °F 52 °F 29.7 in NNW 7.6 mph 13 mph 54% 0 in 24 W/m2
07:11 69.3 °F 52.3 °F 29.6 in North 7.6 mph 13 mph 55% 0 in 24 W/m2
07:16 69.3 °F 52.3 °F 29.6 in North 6 mph 13.6 mph 55% 0 in 26 W/m2
07:21 69.4 °F 53.1 °F 29.6 in North 6.9 mph 13.6 mph 56% 0 in 33 W/m2
07:26 69.4 °F 53.1 °F 29.6 in North 5.4 mph 13 mph 56% 0 in 33 W/m2
07:31 69.6 °F 53.8 °F 29.6 in North 5.4 mph 10.7 mph 57% 0 in 43 W/m2
07:36 69.6 °F 53.8 °F 29.6 in North 5.4 mph 12.1 mph 57% 0 in 54 W/m2
07:41 69.8 °F 53.4 °F 29.6 in North 4.5 mph 12.1 mph 56% 0 in 59 W/m2
07:46 70.2 °F 54.1 °F 29.6 in North 4.5 mph 12.1 mph 57% 0 in 68 W/m2
07:51 70.3 °F 54.9 °F 29.6 in NNE 6.9 mph 15.2 mph 58% 0 in 77 W/m2
07:56 70.3 °F 54.9 °F 29.6 in NNE 6 mph 15.2 mph 58% 0 in 85 W/m2
08:01 70.7 °F 55.2 °F 29.6 in North 4.5 mph 13 mph 58% 0 in 92 W/m2
08:06 71.1 °F 55.6 °F 29.6 in NNE 5.4 mph 10.7 mph 58% 0 in 94 W/m2
08:11 71.2 °F 55.8 °F 29.6 in North 3.8 mph 9.2 mph 58% 0 in 101 W/m2
08:16 71.6 °F 55.6 °F 29.6 in North 5.4 mph 9.2 mph 57% 0 in 112 W/m2
08:21 71.8 °F 56.1 °F 29.6 in North 4.5 mph 9.2 mph 58% 0 in 124 W/m2
08:26 72.1 °F 57 °F 29.6 in NNW 3.8 mph 9.2 mph 59% 0 in 132 W/m2
08:31 72.5 °F 57.4 °F 29.6 in NNW 3.8 mph 12.1 mph 59% 0 in 135 W/m2
08:36 72.9 °F 57.7 °F 29.6 in NNW 5.4 mph 12.1 mph 59% 0 in 130 W/m2
08:41 72.9 °F 58.3 °F 29.6 in North 5.4 mph 12.1 mph 60% 0 in 137 W/m2
08:46 73.2 °F 58.5 °F 29.6 in NNE 5.4 mph 12.1 mph 60% 0 in 157 W/m2
08:51 73.6 °F 58.5 °F 29.6 in NNE 3.8 mph 14.5 mph 59% 0 in 171 W/m2
08:56 74.1 °F 58.8 °F 29.6 in North 7.6 mph 14.5 mph 59% 0 in 185 W/m2
09:01 74.3 °F 59.2 °F 29.6 in North 6.9 mph 15.2 mph 59% 0 in 194 W/m2
09:06 74.7 °F 59.4 °F 29.6 in North 5.4 mph 15.2 mph 59% 0 in 194 W/m2
09:11 75 °F 59.7 °F 29.6 in North 3.8 mph 11.4 mph 59% 0 in 206 W/m2
09:16 75.4 °F 59.5 °F 29.6 in North 5.4 mph 10.7 mph 58% 0 in 228 W/m2
09:21 75.6 °F 59.7 °F 29.6 in NNW 9.8 mph 14.5 mph 58% 0 in 257 W/m2
09:26 75.6 °F 59.7 °F 29.6 in NNW 9.2 mph 16.8 mph 58% 0 in 261 W/m2
09:31 75.7 °F 59.5 °F 29.6 in NNW 9.8 mph 19.7 mph 57% 0 in 251 W/m2
09:49 76.6 °F 59.7 °F 29.6 in NNW 9.8 mph 18.3 mph 56% 0 in 277 W/m2
09:54 76.8 °F 60.1 °F 29.6 in North 9.2 mph 18.3 mph 56% 0 in 295 W/m2
09:59 77 °F 60.1 °F 29.6 in NNW 15.2 mph 23.5 mph 56% 0 in 325 W/m2
10:04 77.2 °F 59.7 °F 29.6 in NNW 10.7 mph 25.9 mph 55% 0 in 387 W/m2
10:09 77.4 °F 60.1 °F 29.6 in NNW 12.1 mph 25.9 mph 55% 0 in 388 W/m2
10:14 77.5 °F 60.1 °F 29.6 in NNW 10.7 mph 21.3 mph 55% 0 in 346 W/m2
10:19 77.5 °F 60.1 °F 29.6 in NNW 19 mph 23.5 mph 55% 0 in 263 W/m2
10:24 77.4 °F 60.1 °F 29.6 in NNW 9.2 mph 23.5 mph 55% 0 in 204 W/m2
10:29 77.2 °F 60.3 °F 29.6 in NNW 11.4 mph 23.5 mph 56% 0 in 199 W/m2
10:34 77 °F 60.6 °F 29.6 in North 14.5 mph 20.6 mph 57% 0 in 266 W/m2
10:39 77.5 °F 61.2 °F 29.6 in North 11.4 mph 20.6 mph 57% 0 in 344 W/m2
10:44 78.3 °F 61.3 °F 29.6 in North 11.4 mph 20.6 mph 56% 0 in 544 W/m2
10:49 79 °F 61 °F 29.6 in North 10.7 mph 21.3 mph 54% 0 in 1063 W/m2
10:54 80.8 °F 61.5 °F 29.6 in North 9.2 mph 21.3 mph 52% 0 in 976 W/m2
10:59 82.2 °F 62.2 °F 29.6 in North 13.6 mph 19.7 mph 51% 0 in 1064 W/m2
11:04 81.7 °F 61.9 °F 29.6 in NNW 10.7 mph 22.8 mph 51% 0 in 1106 W/m2
11:09 81.9 °F 62.1 °F 29.6 in North 10.7 mph 24.4 mph 51% 0 in 381 W/m2
11:14 80.2 °F 61.5 °F 29.6 in North 14.5 mph 24.4 mph 53% 0 in 438 W/m2
11:19 79.9 °F 61.3 °F 29.6 in North 13 mph 25.1 mph 53% 0 in 391 W/m2
11:24 79.9 °F 61.3 °F 29.6 in North 14.5 mph 25.1 mph 53% 0 in 795 W/m2
11:29 80.8 °F 61.5 °F 29.6 in NNW 14.5 mph 21.3 mph 52% 0 in 977 W/m2
11:34 81.3 °F 61.5 °F 29.6 in NNW 11.4 mph 23.5 mph 51% 0 in 388 W/m2
11:40 81.1 °F 61.9 °F 29.6 in NNW 11.4 mph 26.6 mph 52% 0 in 1149 W/m2
12:01 80.8 °F 61.5 °F 29.6 in NNW 14.5 mph 29.8 mph 52% 0 in 1092 W/m2
12:07 82.4 °F 62.4 °F 29.6 in North 9.8 mph 22.8 mph 51% 0 in 950 W/m2
12:12 82.6 °F 62.1 °F 29.6 in NNW 15.9 mph 23.5 mph 50% 0 in 574 W/m2
12:17 81.1 °F 61.9 °F 29.6 in NW 9.8 mph 27.3 mph 52% 0 in 783 W/m2
12:22 81.9 °F 62.1 °F 29.6 in NNW 15.2 mph 30.4 mph 51% 0 in 695 W/m2
12:27 81.5 °F 62.2 °F 29.6 in North 18.3 mph 30.4 mph 52% 0 in 610 W/m2
12:32 81.9 °F 62.6 °F 29.6 in North 17.4 mph 28.2 mph 52% 0 in 733 W/m2
12:37 81.9 °F 62.6 °F 29.6 in North 14.5 mph 30.4 mph 52% 0 in 757 W/m2
12:42 82.2 °F 63 °F 29.6 in North 13.6 mph 30.4 mph 52% 0 in 631 W/m2
12:47 82.9 °F 62.4 °F 29.6 in NNW 12.1 mph 24.4 mph 50% 0 in 1095 W/m2
12:52 82.8 °F 62.8 °F 29.6 in NW 12.1 mph 22.8 mph 51% 0 in 731 W/m2
12:57 82.8 °F 62.8 °F 29.6 in North 9.2 mph 22.1 mph 51% 0 in 601 W/m2
13:02 83.1 °F 63.7 °F 29.6 in North 12.1 mph 19.7 mph 52% 0 in 912 W/m2
13:07 83.3 °F 63.3 °F 29.6 in NNW 11.4 mph 24.4 mph 51% 0 in 838 W/m2
13:12 82.8 °F 63.3 °F 29.6 in NNW 13.6 mph 24.4 mph 52% 0 in 701 W/m2
13:17 82.9 °F 63.7 °F 29.6 in North 10.7 mph 22.8 mph 52% 0 in 701 W/m2
13:22 83.5 °F 64 °F 29.6 in North 12.1 mph 22.8 mph 52% 0 in 657 W/m2
13:27 82.9 °F 63 °F 29.6 in North 12.1 mph 22.8 mph 51% 0 in 801 W/m2
13:32 82.9 °F 63.7 °F 29.6 in NNW 20.6 mph 24.4 mph 52% 0 in 502 W/m2
13:37 83.3 °F 64.9 °F 29.6 in NNW 6.9 mph 24.4 mph 54% 0 in 990 W/m2
13:42 84.6 °F 63.9 °F 29.6 in North 13.6 mph 24.4 mph 50% 0 in 633 W/m2
13:47 83.5 °F 64 °F 29.6 in North 13.6 mph 23.5 mph 52% 0 in 510 W/m2
13:52 84 °F 64.6 °F 29.6 in North 13.6 mph 23.5 mph 52% 0 in 846 W/m2
13:57 84.6 °F 64.6 °F 29.6 in North 12.1 mph 23.5 mph 51% 0 in 477 W/m2
14:02 84.4 °F 63.9 °F 29.6 in North 13.6 mph 19 mph 50% 0 in 571 W/m2
14:07 83.7 °F 64.8 °F 29.6 in NNW 10.7 mph 19 mph 53% 0 in 944 W/m2
14:13 83.7 °F 64.8 °F 29.6 in North 5.4 mph 23.5 mph 53% 0 in 962 W/m2
14:18 84.6 °F 63.9 °F 29.6 in North 12.1 mph 23.5 mph 50% 0 in 944 W/m2
14:23 84 °F 64 °F 29.6 in NNW 7.6 mph 22.1 mph 51% 0 in 347 W/m2
14:28 83.7 °F 63.7 °F 29.6 in NW 12.1 mph 22.1 mph 51% 0 in 428 W/m2
14:33 83.5 °F 64 °F 29.6 in NNW 11.4 mph 21.3 mph 52% 0 in 554 W/m2
14:38 84 °F 64 °F 29.6 in North 11.4 mph 22.1 mph 51% 0 in 568 W/m2
14:43 83.5 °F 63.5 °F 29.6 in North 12.1 mph 24.4 mph 51% 0 in 801 W/m2
14:48 83.7 °F 63.7 °F 29.6 in NNW 10.7 mph 24.4 mph 51% 0 in 393 W/m2
14:53 82.6 °F 63.9 °F 29.6 in NNW 13.6 mph 25.1 mph 53% 0 in 231 W/m2
14:59 82 °F 63.9 °F 29.6 in North 15.2 mph 25.1 mph 54% 0 in 174 W/m2
15:04 81.1 °F 63.5 °F 29.6 in North 6.9 mph 18.3 mph 55% 0 in 142 W/m2
15:10 81.1 °F 64 °F 29.6 in NNW 9.2 mph 18.3 mph 56% 0 in 199 W/m2
15:15 81.1 °F 64 °F 29.6 in NNW 9.8 mph 19 mph 56% 0 in 222 W/m2
15:20 81.1 °F 64 °F 29.6 in NNW 12.1 mph 19 mph 56% 0 in 218 W/m2
15:25 80.8 °F 63.7 °F 29.6 in NNW 10.7 mph 22.1 mph 56% 0 in 263 W/m2
15:30 80.8 °F 63.7 °F 29.6 in NNW 9.8 mph 25.1 mph 56% 0 in 237 W/m2
15:35 81 °F 63.9 °F 29.6 in NNW 14.5 mph 25.1 mph 56% 0 in 220 W/m2
15:40 81.1 °F 64 °F 29.5 in NNW 15.2 mph 22.8 mph 56% 0 in 189 W/m2
15:45 81.1 °F 64 °F 29.6 in NNW 12.1 mph 22.1 mph 56% 0 in 204 W/m2
15:50 81 °F 63.9 °F 29.5 in North 10.7 mph 22.1 mph 56% 0 in 163 W/m2
15:55 81 °F 63.9 °F 29.5 in North 13 mph 22.1 mph 56% 0 in 142 W/m2
16:00 81 °F 64.2 °F 29.5 in NNW 10.7 mph 19.7 mph 57% 0 in 147 W/m2
16:05 81 °F 63.9 °F 29.5 in NNW 12.1 mph 24.4 mph 56% 0 in 135 W/m2
16:10 81 °F 64.2 °F 29.5 in North 13 mph 24.4 mph 57% 0 in 140 W/m2
16:15 81.1 °F 64 °F 29.5 in North 14.5 mph 22.8 mph 56% 0 in 190 W/m2
16:20 81.3 °F 64.2 °F 29.5 in NNW 14.5 mph 22.8 mph 56% 0 in 264 W/m2
16:25 81.9 °F 64.8 °F 29.5 in NW 9.8 mph 25.9 mph 56% 0 in 333 W/m2
16:30 82.8 °F 64.9 °F 29.5 in NW 9.2 mph 25.9 mph 55% 0 in 402 W/m2
16:35 83.3 °F 64.9 °F 29.5 in NW 9.2 mph 19 mph 54% 0 in 546 W/m2
16:40 84.7 °F 65.8 °F 29.5 in NW 5.4 mph 19 mph 53% 0 in 531 W/m2
16:45 85.3 °F 65.7 °F 29.5 in NW 4.5 mph 19 mph 52% 0 in 289 W/m2
16:50 84.9 °F 64.8 °F 29.5 in NW 6 mph 11.4 mph 51% 0 in 330 W/m2
16:55 84.9 °F 65.5 °F 29.5 in NW 13.6 mph 16.8 mph 52% 0 in 286 W/m2
17:00 85.5 °F 64.8 °F 29.5 in WNW 11.4 mph 22.1 mph 50% 0 in 374 W/m2
17:06 86 °F 65.3 °F 29.5 in NW 9.8 mph 22.1 mph 50% 0 in 385 W/m2
17:11 85.6 °F 65.5 °F 29.5 in North 5.4 mph 13 mph 51% 0 in 262 W/m2
17:16 85.1 °F 65.7 °F 29.5 in North 3.8 mph 13 mph 52% 0 in 198 W/m2
17:21 84.9 °F 65.5 °F 29.5 in North 2.2 mph 9.8 mph 52% 0 in 187 W/m2
17:26 84 °F 65.7 °F 29.5 in North 6 mph 10.7 mph 54% 0 in 178 W/m2
17:31 83.3 °F 65.5 °F 29.5 in North 3.1 mph 10.7 mph 55% 0 in 165 W/m2
17:36 83.1 °F 65.3 °F 29.6 in NNW 2.2 mph 10.7 mph 55% 0 in 143 W/m2
17:41 82.9 °F 65.7 °F 29.6 in North 4.5 mph 9.8 mph 56% 0 in 133 W/m2
17:46 82.6 °F 65.3 °F 29.5 in North 2.2 mph 10.7 mph 56% 0 in 123 W/m2
17:51 82.8 °F 64.9 °F 29.6 in NNW 6 mph 12.1 mph 55% 0 in 105 W/m2
17:56 82.8 °F 64.9 °F 29.6 in NW 6 mph 12.1 mph 55% 0 in 91 W/m2
18:01 82.6 °F 64.8 °F 29.6 in WNW 3.8 mph 18.3 mph 55% 0 in 74 W/m2
18:06 82.2 °F 64 °F 29.6 in NW 6 mph 18.3 mph 54% 0 in 60 W/m2
18:12 82 °F 64.2 °F 29.6 in NW 8.3 mph 17.4 mph 55% 0 in 50 W/m2
18:17 81.9 °F 64.2 °F 29.6 in WNW 4.5 mph 17.4 mph 55% 0 in 53 W/m2
18:22 81.7 °F 64 °F 29.6 in WNW 5.4 mph 15.2 mph 55% 0 in 53 W/m2
18:27 81.7 °F 64.6 °F 29.6 in NW 3.8 mph 14.5 mph 56% 0 in 56 W/m2
18:32 81.3 °F 64.8 °F 29.6 in NW 6.9 mph 13.6 mph 57% 0 in 50 W/m2
18:37 80.8 °F 65.1 °F 29.6 in NNW 6 mph 10.7 mph 59% 0 in 44 W/m2
18:42 80.8 °F 64.8 °F 29.6 in North 6.9 mph 11.4 mph 58% 0 in 43 W/m2
18:47 81.1 °F 64.6 °F 29.6 in NNW 6 mph 14.5 mph 57% 0 in 44 W/m2
18:52 81.3 °F 64.2 °F 29.6 in NW 4.5 mph 14.5 mph 56% 0 in 46 W/m2
18:57 81.3 °F 64.8 °F 29.6 in NNW 3.8 mph 10.7 mph 57% 0 in 56 W/m2
19:02 81.1 °F 63.5 °F 29.6 in NNW 10.7 mph 15.2 mph 55% 0 in 58 W/m2
19:07 81.3 °F 63.1 °F 29.6 in NW 4.5 mph 15.2 mph 54% 0 in 52 W/m2
19:12 81.3 °F 63.1 °F 29.6 in WNW 4.5 mph 10.7 mph 54% 0 in 40 W/m2
19:17 81.3 °F 63.1 °F 29.6 in WNW 7.6 mph 12.1 mph 54% 0 in 35 W/m2
19:22 81.1 °F 63 °F 29.6 in NW 6.9 mph 13 mph 54% 0 in 26 W/m2
19:27 81.1 °F 63.5 °F 29.6 in NW 4.5 mph 13 mph 55% 0 in 26 W/m2
19:32 81 °F 63.3 °F 29.6 in NNW 6 mph 13 mph 55% 0 in 25 W/m2
19:37 80.8 °F 63.7 °F 29.6 in North 4.5 mph 13 mph 56% 0 in 23 W/m2
19:42 80.4 °F 64.8 °F 29.6 in NNW 3.8 mph 12.1 mph 59% 0 in 22 W/m2
19:47 80.1 °F 64.9 °F 29.6 in NNW 5.4 mph 6.9 mph 60% 0 in 21 W/m2
19:52 80.1 °F 64.9 °F 29.6 in North 5.4 mph 10.7 mph 60% 0 in 18 W/m2
19:57 79.9 °F 64.8 °F 29.6 in North 3.8 mph 10.7 mph 60% 0 in 15 W/m2
20:02 79.9 °F 65.3 °F 29.6 in North 6 mph 10.7 mph 61% 0 in 13 W/m2
20:07 79.7 °F 65.1 °F 29.6 in NW 3.8 mph 9.8 mph 61% 0 in 19 W/m2
20:12 79.7 °F 65.1 °F 29.6 in NW 6 mph 9.8 mph 61% 0 in 28 W/m2
20:17 80.2 °F 65.1 °F 29.6 in NNW 10.7 mph 16.8 mph 60% 0 in 18 W/m2
20:22 80.2 °F 64.8 °F 29.6 in NW 9.8 mph 21.3 mph 59% 0 in 8 W/m2
20:27 79.9 °F 65.3 °F 29.6 in NW 9.8 mph 21.3 mph 61% 0 in 4 W/m2
20:32 79.7 °F 65.7 °F 29.6 in NNW 13 mph 15.9 mph 62% 0 in 2 W/m2
20:37 79.3 °F 65.1 °F 29.6 in NNW 12.1 mph 20.6 mph 62% 0 in 0 W/m2
20:42 79.2 °F 65.1 °F 29.6 in NNW 6.9 mph 20.6 mph 62% 0 in 0 W/m2
20:47 79 °F 65.5 °F 29.6 in NW 7.6 mph 20.6 mph 63% 0 in 0 W/m2
20:52 78.8 °F 65.1 °F 29.6 in NW 6.9 mph 17.4 mph 63% 0 in 0 W/m2
20:57 78.6 °F 65.5 °F 29.6 in NW 5.4 mph 13 mph 64% 0 in 0 W/m2
21:02 78.4 °F 65.7 °F 29.6 in NNW 5.4 mph 13 mph 65% 0 in 0 W/m2
21:07 78.3 °F 65.7 °F 29.6 in NW 10.7 mph 15.2 mph 65% 0 in 0 W/m2
21:12 78.3 °F 65.1 °F 29.6 in NW 3.8 mph 15.9 mph 64% 0 in 0 W/m2
21:17 78.1 °F 64.9 °F 29.6 in NNW 8.3 mph 15.9 mph 64% 0 in 0 W/m2
21:22 77.9 °F 64.8 °F 29.6 in NNW 9.2 mph 13.6 mph 64% 0 in 0 W/m2
21:27 77.9 °F 65.1 °F 29.6 in NNW 6.9 mph 13 mph 65% 0 in 0 W/m2
21:32 77.7 °F 64.6 °F 29.6 in NNW 4.5 mph 13.6 mph 64% 0 in 0 W/m2
21:37 77.5 °F 64.9 °F 29.6 in NNW 5.4 mph 13.6 mph 65% 0 in 0 W/m2
21:42 77.4 °F 63.9 °F 29.6 in NW 9.2 mph 13.6 mph 63% 0 in 0 W/m2
21:47 77.4 °F 63.3 °F 29.6 in NW 8.3 mph 13.6 mph 62% 0 in 0 W/m2
21:52 77.2 °F 62.2 °F 29.6 in NW 7.6 mph 15.9 mph 60% 0 in 0 W/m2
21:57 77 °F 61.2 °F 29.6 in NW 9.2 mph 15.9 mph 58% 0 in 0 W/m2
22:02 77 °F 58.6 °F 29.6 in NW 9.8 mph 18.3 mph 53% 0 in 0 W/m2
22:07 76.8 °F 59 °F 29.6 in NW 6 mph 18.3 mph 54% 0 in 0 W/m2
22:12 76.5 °F 57.6 °F 29.6 in WNW 6 mph 15.9 mph 52% 0 in 0 W/m2
22:17 76.3 °F 57.9 °F 29.6 in WNW 6 mph 13 mph 53% 0 in 0 W/m2
22:22 75.9 °F 58.6 °F 29.6 in NW 5.4 mph 11.4 mph 55% 0 in 0 W/m2
22:27 75.7 °F 58.5 °F 29.6 in NW 10.7 mph 14.5 mph 55% 0 in 0 W/m2
22:32 75.7 °F 57.9 °F 29.6 in NW 7.6 mph 14.5 mph 54% 0 in 0 W/m2
22:37 75.6 °F 57.4 °F 29.6 in NW 5.4 mph 15.2 mph 53% 0 in 0 W/m2
22:42 75.4 °F 55.6 °F 29.6 in NW 4.5 mph 19 mph 50% 0 in 0 W/m2
22:47 75.2 °F 54.9 °F 29.6 in NW 6.9 mph 19 mph 49% 0 in 0 W/m2
22:52 74.8 °F 55 °F 29.6 in NNW 5.4 mph 15.2 mph 50% 0 in 0 W/m2
22:57 74.5 °F 54.1 °F 29.6 in NNW 9.2 mph 15.2 mph 49% 0 in 0 W/m2
23:02 74.5 °F 53.1 °F 29.6 in NW 5.4 mph 12.1 mph 47% 0 in 0 W/m2
23:07 74.1 °F 52.5 °F 29.6 in NW 9.8 mph 13.6 mph 47% 0 in 0 W/m2
23:12 73.8 °F 52.3 °F 29.6 in NW 8.3 mph 16.8 mph 47% 0 in 0 W/m2
23:17 73.8 °F 51.6 °F 29.6 in NW 11.4 mph 17.4 mph 46% 0 in 0 W/m2
23:22 73.4 °F 51.4 °F 29.6 in NNW 9.8 mph 17.4 mph 46% 0 in 0 W/m2
23:27 73.2 °F 50 °F 29.6 in NNW 6.9 mph 18.3 mph 44% 0 in 0 W/m2
23:32 72.9 °F 50.4 °F 29.7 in NNW 2.2 mph 18.3 mph 45% 0 in 0 W/m2
23:37 72.5 °F 50 °F 29.7 in Calm   13 mph 45% 0 in 0 W/m2
23:42 72.1 °F 50.2 °F 29.7 in West 2.2 mph 3.8 mph 46% 0 in 0 W/m2
23:47 71.8 °F 50.5 °F 29.7 in NNW 3.1 mph 5.4 mph 47% 0 in 0 W/m2
23:52 71.8 °F 49.8 °F 29.7 in NNW 7.6 mph 12.1 mph 46% 0 in 0 W/m2
23:58 71.8 °F 49.8 °F 29.7 in NNW 5.4 mph 13 mph 46% 0 in 0 W/m2
Northern Hawkes Bay. New Zealand Historic Data
Compliments of Weather Underground - 2.25 mb